sensor_id;sensor_type;location;lat;lon;timestamp;temperature;humidity
60039;DHT22;45916;52.734;6.544;2023-09-19T00:00:47;14.80;99.90
60039;DHT22;45916;52.734;6.544;2023-09-19T00:03:14;14.60;99.90
60039;DHT22;45916;52.734;6.544;2023-09-19T00:05:40;14.50;99.90
60039;DHT22;45916;52.734;6.544;2023-09-19T00:08:08;14.40;99.90
60039;DHT22;45916;52.734;6.544;2023-09-19T00:10:34;14.30;99.90
60039;DHT22;45916;52.734;6.544;2023-09-19T00:13:04;14.20;99.90
60039;DHT22;45916;52.734;6.544;2023-09-19T00:15:38;14.10;99.90
60039;DHT22;45916;52.734;6.544;2023-09-19T00:18:05;14.00;99.90
60039;DHT22;45916;52.734;6.544;2023-09-19T00:20:32;14.00;99.90
60039;DHT22;45916;52.734;6.544;2023-09-19T00:22:58;13.90;99.90
60039;DHT22;45916;52.734;6.544;2023-09-19T00:25:24;13.90;99.90
60039;DHT22;45916;52.734;6.544;2023-09-19T00:27:52;13.80;99.90
60039;DHT22;45916;52.734;6.544;2023-09-19T00:30:17;13.70;99.90
60039;DHT22;45916;52.734;6.544;2023-09-19T00:32:47;13.70;99.90
60039;DHT22;45916;52.734;6.544;2023-09-19T00:35:16;13.60;99.90
60039;DHT22;45916;52.734;6.544;2023-09-19T00:37:42;13.60;99.90
60039;DHT22;45916;52.734;6.544;2023-09-19T00:40:09;13.50;99.90
60039;DHT22;45916;52.734;6.544;2023-09-19T00:42:39;13.50;99.90
60039;DHT22;45916;52.734;6.544;2023-09-19T00:45:07;13.50;99.90
60039;DHT22;45916;52.734;6.544;2023-09-19T00:47:35;13.50;99.90
60039;DHT22;45916;52.734;6.544;2023-09-19T00:50:03;13.50;99.90
60039;DHT22;45916;52.734;6.544;2023-09-19T00:52:30;13.50;99.90
60039;DHT22;45916;52.734;6.544;2023-09-19T00:54:57;13.50;99.90
60039;DHT22;45916;52.734;6.544;2023-09-19T00:57:24;13.50;99.90
60039;DHT22;45916;52.734;6.544;2023-09-19T00:59:51;13.50;99.90
60039;DHT22;45916;52.734;6.544;2023-09-19T01:02:19;13.50;99.90
60039;DHT22;45916;52.734;6.544;2023-09-19T01:04:45;13.60;99.90
60039;DHT22;45916;52.734;6.544;2023-09-19T01:07:11;13.50;99.90
60039;DHT22;45916;52.734;6.544;2023-09-19T01:09:37;13.60;99.90
60039;DHT22;45916;52.734;6.544;2023-09-19T01:12:05;13.50;99.90
60039;DHT22;45916;52.734;6.544;2023-09-19T01:14:44;13.50;99.90
60039;DHT22;45916;52.734;6.544;2023-09-19T01:17:39;13.50;99.90
60039;DHT22;45916;52.734;6.544;2023-09-19T01:20:15;13.40;99.90
60039;DHT22;45916;52.734;6.544;2023-09-19T01:28:53;13.50;99.90
60039;DHT22;45916;52.734;6.544;2023-09-19T01:31:23;13.50;99.90
60039;DHT22;45916;52.734;6.544;2023-09-19T01:33:58;13.50;99.90
60039;DHT22;45916;52.734;6.544;2023-09-19T01:36:34;13.50;99.90
60039;DHT22;45916;52.734;6.544;2023-09-19T01:39:06;13.40;99.90
60039;DHT22;45916;52.734;6.544;2023-09-19T01:42:05;13.40;99.90
60039;DHT22;45916;52.734;6.544;2023-09-19T01:44:57;13.40;99.90
60039;DHT22;45916;52.734;6.544;2023-09-19T01:47:34;13.40;99.90
60039;DHT22;45916;52.734;6.544;2023-09-19T01:52:52;13.40;99.90
60039;DHT22;45916;52.734;6.544;2023-09-19T01:55:20;13.30;99.90
60039;DHT22;45916;52.734;6.544;2023-09-19T02:00:48;13.30;99.90
60039;DHT22;45916;52.734;6.544;2023-09-19T02:03:17;13.20;99.90
60039;DHT22;45916;52.734;6.544;2023-09-19T02:05:50;13.20;99.90
60039;DHT22;45916;52.734;6.544;2023-09-19T02:08:20;13.20;99.90
60039;DHT22;45916;52.734;6.544;2023-09-19T02:10:49;13.20;99.90
60039;DHT22;45916;52.734;6.544;2023-09-19T02:13:16;13.30;99.90
60039;DHT22;45916;52.734;6.544;2023-09-19T02:15:43;13.30;99.90
60039;DHT22;45916;52.734;6.544;2023-09-19T02:18:10;13.20;99.90
60039;DHT22;45916;52.734;6.544;2023-09-19T02:20:37;13.20;99.90
60039;DHT22;45916;52.734;6.544;2023-09-19T02:23:04;13.20;99.90
60039;DHT22;45916;52.734;6.544;2023-09-19T02:25:29;13.20;99.90
60039;DHT22;45916;52.734;6.544;2023-09-19T02:27:56;13.20;99.90
60039;DHT22;45916;52.734;6.544;2023-09-19T02:30:24;13.20;99.90
60039;DHT22;45916;52.734;6.544;2023-09-19T02:32:51;13.10;99.90
60039;DHT22;45916;52.734;6.544;2023-09-19T02:35:17;13.10;99.90
60039;DHT22;45916;52.734;6.544;2023-09-19T02:37:45;13.10;99.90
60039;DHT22;45916;52.734;6.544;2023-09-19T02:40:11;13.00;99.90
60039;DHT22;45916;52.734;6.544;2023-09-19T02:42:54;13.00;99.90
60039;DHT22;45916;52.734;6.544;2023-09-19T02:45:20;13.00;99.90
60039;DHT22;45916;52.734;6.544;2023-09-19T02:47:46;13.00;99.90
60039;DHT22;45916;52.734;6.544;2023-09-19T02:50:13;13.00;99.90
60039;DHT22;45916;52.734;6.544;2023-09-19T02:52:41;13.00;99.90
60039;DHT22;45916;52.734;6.544;2023-09-19T02:55:09;12.90;99.90
60039;DHT22;45916;52.734;6.544;2023-09-19T02:57:36;12.90;99.90
60039;DHT22;45916;52.734;6.544;2023-09-19T03:00:07;12.90;99.90
60039;DHT22;45916;52.734;6.544;2023-09-19T03:02:33;12.90;99.90
60039;DHT22;45916;52.734;6.544;2023-09-19T03:05:00;12.90;99.90
60039;DHT22;45916;52.734;6.544;2023-09-19T03:07:26;13.00;99.90
60039;DHT22;45916;52.734;6.544;2023-09-19T03:09:52;13.00;99.90
60039;DHT22;45916;52.734;6.544;2023-09-19T03:12:18;13.10;99.90
60039;DHT22;45916;52.734;6.544;2023-09-19T03:14:44;13.10;99.90
60039;DHT22;45916;52.734;6.544;2023-09-19T03:17:09;13.10;99.90
60039;DHT22;45916;52.734;6.544;2023-09-19T03:19:35;13.10;99.90
60039;DHT22;45916;52.734;6.544;2023-09-19T03:22:04;13.10;99.90
60039;DHT22;45916;52.734;6.544;2023-09-19T03:24:30;13.10;99.90
60039;DHT22;45916;52.734;6.544;2023-09-19T03:26:58;13.20;99.90
60039;DHT22;45916;52.734;6.544;2023-09-19T03:29:24;13.20;99.90
60039;DHT22;45916;52.734;6.544;2023-09-19T03:31:50;13.30;99.90
60039;DHT22;45916;52.734;6.544;2023-09-19T03:34:16;13.30;99.90
60039;DHT22;45916;52.734;6.544;2023-09-19T03:36:42;13.40;99.90
60039;DHT22;45916;52.734;6.544;2023-09-19T03:39:08;13.50;99.90
60039;DHT22;45916;52.734;6.544;2023-09-19T03:41:34;13.50;99.90
60039;DHT22;45916;52.734;6.544;2023-09-19T03:44:02;13.50;99.90
60039;DHT22;45916;52.734;6.544;2023-09-19T03:46:28;13.60;99.90
60039;DHT22;45916;52.734;6.544;2023-09-19T03:48:54;13.60;99.90
60039;DHT22;45916;52.734;6.544;2023-09-19T03:51:20;13.70;99.90
60039;DHT22;45916;52.734;6.544;2023-09-19T03:53:46;13.70;99.90
60039;DHT22;45916;52.734;6.544;2023-09-19T03:56:12;13.70;99.90
60039;DHT22;45916;52.734;6.544;2023-09-19T03:58:37;13.70;99.90
60039;DHT22;45916;52.734;6.544;2023-09-19T04:01:05;13.70;99.90
60039;DHT22;45916;52.734;6.544;2023-09-19T04:03:33;13.80;99.90
60039;DHT22;45916;52.734;6.544;2023-09-19T04:06:15;13.90;99.90
60039;DHT22;45916;52.734;6.544;2023-09-19T04:08:41;13.90;99.90
60039;DHT22;45916;52.734;6.544;2023-09-19T04:11:07;13.90;99.90
60039;DHT22;45916;52.734;6.544;2023-09-19T04:13:33;13.80;99.90
60039;DHT22;45916;52.734;6.544;2023-09-19T04:15:59;13.80;99.90
60039;DHT22;45916;52.734;6.544;2023-09-19T04:18:25;13.80;99.90
60039;DHT22;45916;52.734;6.544;2023-09-19T04:20:51;13.80;99.90
60039;DHT22;45916;52.734;6.544;2023-09-19T04:23:17;13.70;99.90
60039;DHT22;45916;52.734;6.544;2023-09-19T04:25:43;13.70;99.90
60039;DHT22;45916;52.734;6.544;2023-09-19T04:28:09;13.60;99.90
60039;DHT22;45916;52.734;6.544;2023-09-19T04:30:37;13.60;99.90
60039;DHT22;45916;52.734;6.544;2023-09-19T04:33:03;13.50;99.90
60039;DHT22;45916;52.734;6.544;2023-09-19T04:35:29;13.50;99.90
60039;DHT22;45916;52.734;6.544;2023-09-19T04:37:57;13.40;99.90
60039;DHT22;45916;52.734;6.544;2023-09-19T04:40:23;13.40;99.90
60039;DHT22;45916;52.734;6.544;2023-09-19T04:42:58;13.40;99.90
60039;DHT22;45916;52.734;6.544;2023-09-19T04:45:27;13.40;99.90
60039;DHT22;45916;52.734;6.544;2023-09-19T04:47:53;13.30;99.90
60039;DHT22;45916;52.734;6.544;2023-09-19T04:50:20;13.30;99.90
60039;DHT22;45916;52.734;6.544;2023-09-19T04:52:50;13.30;99.90
60039;DHT22;45916;52.734;6.544;2023-09-19T04:55:17;13.30;99.90
60039;DHT22;45916;52.734;6.544;2023-09-19T04:57:50;13.20;99.90
60039;DHT22;45916;52.734;6.544;2023-09-19T05:00:20;13.20;99.90
60039;DHT22;45916;52.734;6.544;2023-09-19T05:02:56;13.20;99.90
60039;DHT22;45916;52.734;6.544;2023-09-19T05:05:22;13.30;99.90
60039;DHT22;45916;52.734;6.544;2023-09-19T05:07:49;13.30;99.90
60039;DHT22;45916;52.734;6.544;2023-09-19T05:10:16;13.40;99.90
60039;DHT22;45916;52.734;6.544;2023-09-19T05:12:44;13.40;99.90
60039;DHT22;45916;52.734;6.544;2023-09-19T05:15:13;13.40;99.90
60039;DHT22;45916;52.734;6.544;2023-09-19T05:17:40;13.40;99.90
60039;DHT22;45916;52.734;6.544;2023-09-19T05:20:07;13.40;99.90
60039;DHT22;45916;52.734;6.544;2023-09-19T05:22:43;13.30;99.90
60039;DHT22;45916;52.734;6.544;2023-09-19T05:25:09;13.30;99.90
60039;DHT22;45916;52.734;6.544;2023-09-19T05:27:36;13.20;99.90
60039;DHT22;45916;52.734;6.544;2023-09-19T05:30:02;13.20;99.90
60039;DHT22;45916;52.734;6.544;2023-09-19T05:32:28;13.20;99.90
60039;DHT22;45916;52.734;6.544;2023-09-19T05:34:53;13.30;99.90
60039;DHT22;45916;52.734;6.544;2023-09-19T05:37:21;13.30;99.90
60039;DHT22;45916;52.734;6.544;2023-09-19T05:39:49;13.20;99.90
60039;DHT22;45916;52.734;6.544;2023-09-19T05:42:14;13.20;99.90
60039;DHT22;45916;52.734;6.544;2023-09-19T05:44:40;13.20;99.90
60039;DHT22;45916;52.734;6.544;2023-09-19T05:47:06;13.20;99.90
60039;DHT22;45916;52.734;6.544;2023-09-19T05:49:35;13.20;99.90
60039;DHT22;45916;52.734;6.544;2023-09-19T05:52:08;13.30;99.90
60039;DHT22;45916;52.734;6.544;2023-09-19T05:54:33;13.30;99.90
60039;DHT22;45916;52.734;6.544;2023-09-19T05:57:00;13.50;99.90
60039;DHT22;45916;52.734;6.544;2023-09-19T05:59:27;14.10;99.90
60039;DHT22;45916;52.734;6.544;2023-09-19T06:01:53;14.70;99.90
60039;DHT22;45916;52.734;6.544;2023-09-19T06:04:18;15.60;99.90
60039;DHT22;45916;52.734;6.544;2023-09-19T06:06:45;16.60;99.90
60039;DHT22;45916;52.734;6.544;2023-09-19T06:09:10;17.50;99.90
60039;DHT22;45916;52.734;6.544;2023-09-19T06:11:36;18.40;99.90
60039;DHT22;45916;52.734;6.544;2023-09-19T06:14:03;19.00;99.90
60039;DHT22;45916;52.734;6.544;2023-09-19T06:16:30;19.20;99.90
60039;DHT22;45916;52.734;6.544;2023-09-19T06:18:57;18.90;99.90
60039;DHT22;45916;52.734;6.544;2023-09-19T06:21:25;18.90;99.90
60039;DHT22;45916;52.734;6.544;2023-09-19T06:23:55;19.70;99.90
60039;DHT22;45916;52.734;6.544;2023-09-19T06:26:21;20.90;99.90
60039;DHT22;45916;52.734;6.544;2023-09-19T06:28:46;21.50;99.90
60039;DHT22;45916;52.734;6.544;2023-09-19T06:31:12;21.50;99.90
60039;DHT22;45916;52.734;6.544;2023-09-19T06:33:38;20.80;99.90
60039;DHT22;45916;52.734;6.544;2023-09-19T06:36:05;20.00;99.90
60039;DHT22;45916;52.734;6.544;2023-09-19T06:38:31;19.30;99.90
60039;DHT22;45916;52.734;6.544;2023-09-19T06:40:59;18.60;99.90
60039;DHT22;45916;52.734;6.544;2023-09-19T06:43:26;18.00;99.90
60039;DHT22;45916;52.734;6.544;2023-09-19T06:45:53;17.70;99.90
60039;DHT22;45916;52.734;6.544;2023-09-19T06:48:20;17.20;99.90
60039;DHT22;45916;52.734;6.544;2023-09-19T06:50:46;17.00;99.90
60039;DHT22;45916;52.734;6.544;2023-09-19T06:53:13;16.90;99.90
60039;DHT22;45916;52.734;6.544;2023-09-19T06:55:39;16.80;99.90
60039;DHT22;45916;52.734;6.544;2023-09-19T06:58:05;16.70;99.90
60039;DHT22;45916;52.734;6.544;2023-09-19T07:00:31;16.60;99.90
60039;DHT22;45916;52.734;6.544;2023-09-19T07:03:06;16.90;99.90
60039;DHT22;45916;52.734;6.544;2023-09-19T07:05:37;17.40;99.90
60039;DHT22;45916;52.734;6.544;2023-09-19T07:08:05;17.60;99.90
60039;DHT22;45916;52.734;6.544;2023-09-19T07:10:32;17.60;99.90
60039;DHT22;45916;52.734;6.544;2023-09-19T07:13:00;18.40;99.90
60039;DHT22;45916;52.734;6.544;2023-09-19T07:15:27;19.60;99.90
60039;DHT22;45916;52.734;6.544;2023-09-19T07:17:53;21.30;99.90
60039;DHT22;45916;52.734;6.544;2023-09-19T07:20:20;22.10;99.90
60039;DHT22;45916;52.734;6.544;2023-09-19T07:22:46;21.90;99.90
60039;DHT22;45916;52.734;6.544;2023-09-19T07:25:13;21.30;99.90
60039;DHT22;45916;52.734;6.544;2023-09-19T07:27:43;20.70;99.90
60039;DHT22;45916;52.734;6.544;2023-09-19T07:30:10;20.20;99.90
60039;DHT22;45916;52.734;6.544;2023-09-19T07:32:37;20.10;99.90
60039;DHT22;45916;52.734;6.544;2023-09-19T07:35:05;20.30;99.90
60039;DHT22;45916;52.734;6.544;2023-09-19T07:37:33;20.50;99.90
60039;DHT22;45916;52.734;6.544;2023-09-19T07:40:00;21.70;99.90
60039;DHT22;45916;52.734;6.544;2023-09-19T07:42:27;23.20;99.90
60039;DHT22;45916;52.734;6.544;2023-09-19T07:44:52;23.80;97.70
60039;DHT22;45916;52.734;6.544;2023-09-19T07:47:20;23.60;94.70
60039;DHT22;45916;52.734;6.544;2023-09-19T07:49:47;23.90;95.20
60039;DHT22;45916;52.734;6.544;2023-09-19T07:52:13;24.00;92.00
60039;DHT22;45916;52.734;6.544;2023-09-19T07:54:39;24.10;91.60
60039;DHT22;45916;52.734;6.544;2023-09-19T07:57:07;24.60;91.80
60039;DHT22;45916;52.734;6.544;2023-09-19T07:59:32;24.80;90.50
60039;DHT22;45916;52.734;6.544;2023-09-19T08:01:58;25.20;88.70
60039;DHT22;45916;52.734;6.544;2023-09-19T08:04:24;25.70;85.30
60039;DHT22;45916;52.734;6.544;2023-09-19T08:06:51;26.20;79.50
60039;DHT22;45916;52.734;6.544;2023-09-19T08:09:17;26.30;77.10
60039;DHT22;45916;52.734;6.544;2023-09-19T08:11:47;25.80;78.10
60039;DHT22;45916;52.734;6.544;2023-09-19T08:14:13;25.30;78.80
60039;DHT22;45916;52.734;6.544;2023-09-19T08:16:40;25.00;80.00
60039;DHT22;45916;52.734;6.544;2023-09-19T08:19:05;25.10;80.30
60039;DHT22;45916;52.734;6.544;2023-09-19T08:21:31;25.20;81.10
60039;DHT22;45916;52.734;6.544;2023-09-19T08:23:57;25.40;80.30
60039;DHT22;45916;52.734;6.544;2023-09-19T08:26:23;25.40;79.60
60039;DHT22;45916;52.734;6.544;2023-09-19T08:28:50;25.70;79.40
60039;DHT22;45916;52.734;6.544;2023-09-19T08:31:17;26.20;78.50
60039;DHT22;45916;52.734;6.544;2023-09-19T08:33:43;26.20;76.30
60039;DHT22;45916;52.734;6.544;2023-09-19T08:36:10;26.10;75.80
60039;DHT22;45916;52.734;6.544;2023-09-19T08:38:39;25.70;76.50
60039;DHT22;45916;52.734;6.544;2023-09-19T08:41:07;25.10;76.50
60039;DHT22;45916;52.734;6.544;2023-09-19T08:43:33;25.10;78.70
60039;DHT22;45916;52.734;6.544;2023-09-19T08:46:12;25.30;77.90
60039;DHT22;45916;52.734;6.544;2023-09-19T08:48:57;26.00;78.90
60039;DHT22;45916;52.734;6.544;2023-09-19T08:51:30;26.60;74.70
60039;DHT22;45916;52.734;6.544;2023-09-19T08:54:06;26.90;73.10
60039;DHT22;45916;52.734;6.544;2023-09-19T08:56:33;27.30;73.60
60039;DHT22;45916;52.734;6.544;2023-09-19T08:59:06;27.30;69.60
60039;DHT22;45916;52.734;6.544;2023-09-19T09:01:35;27.70;71.20
60039;DHT22;45916;52.734;6.544;2023-09-19T09:04:02;28.20;68.70
60039;DHT22;45916;52.734;6.544;2023-09-19T09:06:29;28.50;66.60
60039;DHT22;45916;52.734;6.544;2023-09-19T09:08:55;29.10;66.40
60039;DHT22;45916;52.734;6.544;2023-09-19T09:11:21;29.60;64.00
60039;DHT22;45916;52.734;6.544;2023-09-19T09:13:50;30.80;63.90
60039;DHT22;45916;52.734;6.544;2023-09-19T09:16:15;31.70;61.50
60039;DHT22;45916;52.734;6.544;2023-09-19T09:18:45;31.70;57.10
60039;DHT22;45916;52.734;6.544;2023-09-19T09:21:11;32.10;58.40
60039;DHT22;45916;52.734;6.544;2023-09-19T09:23:37;32.60;57.90
60039;DHT22;45916;52.734;6.544;2023-09-19T09:26:04;32.80;55.70
60039;DHT22;45916;52.734;6.544;2023-09-19T09:28:33;32.20;54.80
60039;DHT22;45916;52.734;6.544;2023-09-19T09:30:59;32.00;56.30
60039;DHT22;45916;52.734;6.544;2023-09-19T09:33:26;32.30;56.30
60039;DHT22;45916;52.734;6.544;2023-09-19T09:35:54;32.40;53.90
60039;DHT22;45916;52.734;6.544;2023-09-19T09:38:25;32.30;53.80
60039;DHT22;45916;52.734;6.544;2023-09-19T09:40:58;32.10;53.80
60039;DHT22;45916;52.734;6.544;2023-09-19T09:43:39;31.60;54.90
60039;DHT22;45916;52.734;6.544;2023-09-19T09:46:20;31.40;54.50
60039;DHT22;45916;52.734;6.544;2023-09-19T09:48:46;31.20;54.90
60039;DHT22;45916;52.734;6.544;2023-09-19T09:51:32;30.90;55.90
60039;DHT22;45916;52.734;6.544;2023-09-19T09:54:16;30.30;55.50
60039;DHT22;45916;52.734;6.544;2023-09-19T09:56:59;29.80;56.80
60039;DHT22;45916;52.734;6.544;2023-09-19T09:59:48;28.90;56.90
60039;DHT22;45916;52.734;6.544;2023-09-19T10:02:20;27.80;58.30
60039;DHT22;45916;52.734;6.544;2023-09-19T10:04:55;26.70;60.00
60039;DHT22;45916;52.734;6.544;2023-09-19T10:07:48;25.90;62.30
60039;DHT22;45916;52.734;6.544;2023-09-19T10:13:05;25.90;64.80
60039;DHT22;45916;52.734;6.544;2023-09-19T10:15:32;25.90;64.60
60039;DHT22;45916;52.734;6.544;2023-09-19T10:18:06;25.90;64.80
60039;DHT22;45916;52.734;6.544;2023-09-19T10:20:34;26.40;63.70
60039;DHT22;45916;52.734;6.544;2023-09-19T10:23:13;27.00;62.90
60039;DHT22;45916;52.734;6.544;2023-09-19T10:25:46;27.30;61.90
60039;DHT22;45916;52.734;6.544;2023-09-19T10:28:13;27.40;61.10
60039;DHT22;45916;52.734;6.544;2023-09-19T10:30:44;27.40;61.50
60039;DHT22;45916;52.734;6.544;2023-09-19T10:33:15;26.90;62.00
60039;DHT22;45916;52.734;6.544;2023-09-19T10:35:45;26.20;62.60
60039;DHT22;45916;52.734;6.544;2023-09-19T10:38:19;25.70;63.10
60039;DHT22;45916;52.734;6.544;2023-09-19T10:40:51;25.60;63.90
60039;DHT22;45916;52.734;6.544;2023-09-19T10:43:21;25.10;64.70
60039;DHT22;45916;52.734;6.544;2023-09-19T10:45:50;25.00;65.70
60039;DHT22;45916;52.734;6.544;2023-09-19T10:48:18;25.00;67.30
60039;DHT22;45916;52.734;6.544;2023-09-19T10:51:02;25.10;66.80
60039;DHT22;45916;52.734;6.544;2023-09-19T10:53:55;25.20;65.90
60039;DHT22;45916;52.734;6.544;2023-09-19T10:56:35;25.20;65.40
60039;DHT22;45916;52.734;6.544;2023-09-19T11:01:45;24.30;66.30
60039;DHT22;45916;52.734;6.544;2023-09-19T11:04:30;23.70;67.30
60039;DHT22;45916;52.734;6.544;2023-09-19T11:12:12;23.80;71.40
60039;DHT22;45916;52.734;6.544;2023-09-19T11:14:40;23.60;71.40
60039;DHT22;45916;52.734;6.544;2023-09-19T11:33:27;23.20;74.80
60039;DHT22;45916;52.734;6.544;2023-09-19T11:36:05;23.60;72.50
60039;DHT22;45916;52.734;6.544;2023-09-19T11:46:52;23.10;74.00
60039;DHT22;45916;52.734;6.544;2023-09-19T11:49:31;22.70;75.80
60039;DHT22;45916;52.734;6.544;2023-09-19T11:51:59;22.50;77.40
60039;DHT22;45916;52.734;6.544;2023-09-19T11:54:31;22.50;78.80
60039;DHT22;45916;52.734;6.544;2023-09-19T11:56:58;22.50;77.30
60039;DHT22;45916;52.734;6.544;2023-09-19T11:59:27;22.30;78.40
60039;DHT22;45916;52.734;6.544;2023-09-19T12:02:06;21.80;79.00
60039;DHT22;45916;52.734;6.544;2023-09-19T12:04:41;21.60;81.10
60039;DHT22;45916;52.734;6.544;2023-09-19T12:07:12;21.50;83.40
60039;DHT22;45916;52.734;6.544;2023-09-19T12:09:45;21.50;86.80
60039;DHT22;45916;52.734;6.544;2023-09-19T12:12:28;21.60;87.60
60039;DHT22;45916;52.734;6.544;2023-09-19T12:14:56;21.90;87.10
60039;DHT22;45916;52.734;6.544;2023-09-19T12:17:41;21.90;87.30
60039;DHT22;45916;52.734;6.544;2023-09-19T12:20:10;21.80;87.60
60039;DHT22;45916;52.734;6.544;2023-09-19T12:22:45;21.50;88.70
60039;DHT22;45916;52.734;6.544;2023-09-19T12:25:12;21.50;89.90
60039;DHT22;45916;52.734;6.544;2023-09-19T12:27:46;21.50;88.90
60039;DHT22;45916;52.734;6.544;2023-09-19T12:30:27;21.50;89.30
60039;DHT22;45916;52.734;6.544;2023-09-19T12:32:53;21.40;90.50
60039;DHT22;45916;52.734;6.544;2023-09-19T12:35:32;21.10;90.80
60039;DHT22;45916;52.734;6.544;2023-09-19T12:38:00;21.20;93.60
60039;DHT22;45916;52.734;6.544;2023-09-19T12:40:26;21.50;93.80
60039;DHT22;45916;52.734;6.544;2023-09-19T12:42:59;21.80;93.30
60039;DHT22;45916;52.734;6.544;2023-09-19T12:45:26;21.90;91.90
60039;DHT22;45916;52.734;6.544;2023-09-19T12:48:24;21.80;92.30
60039;DHT22;45916;52.734;6.544;2023-09-19T12:51:06;21.70;92.10
60039;DHT22;45916;52.734;6.544;2023-09-19T12:53:34;21.50;92.90
60039;DHT22;45916;52.734;6.544;2023-09-19T12:56:03;21.60;93.20
60039;DHT22;45916;52.734;6.544;2023-09-19T12:58:34;21.70;93.40
60039;DHT22;45916;52.734;6.544;2023-09-19T13:01:00;21.60;93.90
60039;DHT22;45916;52.734;6.544;2023-09-19T13:03:30;21.50;94.00
60039;DHT22;45916;52.734;6.544;2023-09-19T13:06:02;21.30;94.60
60039;DHT22;45916;52.734;6.544;2023-09-19T13:08:33;21.00;95.90
60039;DHT22;45916;52.734;6.544;2023-09-19T13:11:14;20.70;96.40
60039;DHT22;45916;52.734;6.544;2023-09-19T13:13:49;20.50;98.10
60039;DHT22;45916;52.734;6.544;2023-09-19T13:16:19;20.40;99.70
60039;DHT22;45916;52.734;6.544;2023-09-19T13:18:53;20.20;99.90
60039;DHT22;45916;52.734;6.544;2023-09-19T13:23:55;20.10;99.90
60039;DHT22;45916;52.734;6.544;2023-09-19T13:26:28;20.10;99.90
60039;DHT22;45916;52.734;6.544;2023-09-19T13:28:56;20.20;99.90
60039;DHT22;45916;52.734;6.544;2023-09-19T13:31:22;20.10;99.90
60039;DHT22;45916;52.734;6.544;2023-09-19T13:33:49;20.00;99.90
60039;DHT22;45916;52.734;6.544;2023-09-19T13:36:15;19.90;99.90
60039;DHT22;45916;52.734;6.544;2023-09-19T13:38:41;19.80;99.90
60039;DHT22;45916;52.734;6.544;2023-09-19T13:41:09;19.70;99.90
60039;DHT22;45916;52.734;6.544;2023-09-19T13:43:36;19.70;99.90
60039;DHT22;45916;52.734;6.544;2023-09-19T13:46:04;19.70;99.90
60039;DHT22;45916;52.734;6.544;2023-09-19T13:48:29;19.70;99.90
60039;DHT22;45916;52.734;6.544;2023-09-19T13:50:56;19.90;99.90
60039;DHT22;45916;52.734;6.544;2023-09-19T13:53:22;19.90;99.90
60039;DHT22;45916;52.734;6.544;2023-09-19T13:55:48;20.00;99.90
60039;DHT22;45916;52.734;6.544;2023-09-19T13:58:14;20.10;99.90
60039;DHT22;45916;52.734;6.544;2023-09-19T14:00:40;20.10;99.90
60039;DHT22;45916;52.734;6.544;2023-09-19T14:03:06;20.10;99.90
60039;DHT22;45916;52.734;6.544;2023-09-19T14:05:32;20.20;99.90
60039;DHT22;45916;52.734;6.544;2023-09-19T14:07:58;20.10;99.90
60039;DHT22;45916;52.734;6.544;2023-09-19T14:10:25;20.20;99.90
60039;DHT22;45916;52.734;6.544;2023-09-19T14:12:56;20.20;99.90
60039;DHT22;45916;52.734;6.544;2023-09-19T14:15:23;20.30;99.90
60039;DHT22;45916;52.734;6.544;2023-09-19T14:17:59;20.40;99.90
60039;DHT22;45916;52.734;6.544;2023-09-19T14:20:26;20.50;99.90
60039;DHT22;45916;52.734;6.544;2023-09-19T14:22:53;20.50;99.90
60039;DHT22;45916;52.734;6.544;2023-09-19T14:25:19;20.50;99.90
60039;DHT22;45916;52.734;6.544;2023-09-19T14:27:46;20.50;99.90
60039;DHT22;45916;52.734;6.544;2023-09-19T14:30:13;20.50;99.90
60039;DHT22;45916;52.734;6.544;2023-09-19T14:32:39;20.40;99.90
60039;DHT22;45916;52.734;6.544;2023-09-19T14:35:06;20.40;99.90
60039;DHT22;45916;52.734;6.544;2023-09-19T14:37:32;20.30;99.90
60039;DHT22;45916;52.734;6.544;2023-09-19T14:39:58;20.20;99.90
60039;DHT22;45916;52.734;6.544;2023-09-19T14:42:23;20.10;99.90
60039;DHT22;45916;52.734;6.544;2023-09-19T14:44:49;20.00;99.90
60039;DHT22;45916;52.734;6.544;2023-09-19T14:47:15;19.90;99.90
60039;DHT22;45916;52.734;6.544;2023-09-19T14:49:42;19.80;99.90
60039;DHT22;45916;52.734;6.544;2023-09-19T14:52:09;19.70;99.90
60039;DHT22;45916;52.734;6.544;2023-09-19T14:54:35;19.70;99.90
60039;DHT22;45916;52.734;6.544;2023-09-19T14:57:03;19.70;99.90
60039;DHT22;45916;52.734;6.544;2023-09-19T14:59:34;19.60;99.90
60039;DHT22;45916;52.734;6.544;2023-09-19T15:02:05;19.60;99.90
60039;DHT22;45916;52.734;6.544;2023-09-19T15:04:32;19.60;99.90
60039;DHT22;45916;52.734;6.544;2023-09-19T15:06:59;19.60;99.90
60039;DHT22;45916;52.734;6.544;2023-09-19T15:09:25;19.70;99.90
60039;DHT22;45916;52.734;6.544;2023-09-19T15:11:52;19.60;99.90
60039;DHT22;45916;52.734;6.544;2023-09-19T15:14:18;19.60;99.90
60039;DHT22;45916;52.734;6.544;2023-09-19T15:16:44;19.70;99.90
60039;DHT22;45916;52.734;6.544;2023-09-19T15:19:10;19.70;99.90
60039;DHT22;45916;52.734;6.544;2023-09-19T15:21:36;19.80;99.90
60039;DHT22;45916;52.734;6.544;2023-09-19T15:24:03;19.80;99.90
60039;DHT22;45916;52.734;6.544;2023-09-19T15:26:30;19.70;99.90
60039;DHT22;45916;52.734;6.544;2023-09-19T15:28:56;19.60;99.90
60039;DHT22;45916;52.734;6.544;2023-09-19T15:31:22;19.50;99.90
60039;DHT22;45916;52.734;6.544;2023-09-19T15:33:47;19.40;99.90
60039;DHT22;45916;52.734;6.544;2023-09-19T15:36:15;19.30;99.90
60039;DHT22;45916;52.734;6.544;2023-09-19T15:39:03;19.40;99.90
60039;DHT22;45916;52.734;6.544;2023-09-19T15:41:37;19.30;99.90
60039;DHT22;45916;52.734;6.544;2023-09-19T15:44:04;19.30;99.90
60039;DHT22;45916;52.734;6.544;2023-09-19T15:46:32;19.20;99.90
60039;DHT22;45916;52.734;6.544;2023-09-19T15:49:01;19.20;99.90
60039;DHT22;45916;52.734;6.544;2023-09-19T15:51:27;19.10;99.90
60039;DHT22;45916;52.734;6.544;2023-09-19T15:53:54;19.10;99.90
60039;DHT22;45916;52.734;6.544;2023-09-19T15:56:21;19.00;99.90
60039;DHT22;45916;52.734;6.544;2023-09-19T15:58:49;19.00;99.90
60039;DHT22;45916;52.734;6.544;2023-09-19T16:01:16;19.10;99.90
60039;DHT22;45916;52.734;6.544;2023-09-19T16:03:51;19.10;99.90
60039;DHT22;45916;52.734;6.544;2023-09-19T16:06:24;19.10;99.90
60039;DHT22;45916;52.734;6.544;2023-09-19T16:08:52;19.10;99.90
60039;DHT22;45916;52.734;6.544;2023-09-19T16:11:18;19.00;99.90
60039;DHT22;45916;52.734;6.544;2023-09-19T16:13:47;18.90;99.90
60039;DHT22;45916;52.734;6.544;2023-09-19T16:16:14;18.90;99.90
60039;DHT22;45916;52.734;6.544;2023-09-19T16:21:14;18.90;99.90
60039;DHT22;45916;52.734;6.544;2023-09-19T16:23:44;18.90;99.90
60039;DHT22;45916;52.734;6.544;2023-09-19T16:26:09;18.90;99.90
60039;DHT22;45916;52.734;6.544;2023-09-19T16:28:36;18.80;99.90
60039;DHT22;45916;52.734;6.544;2023-09-19T16:31:03;18.70;99.90
60039;DHT22;45916;52.734;6.544;2023-09-19T16:33:31;18.70;99.90